Time;durP1;ratioP1;P1;durP2;ratioP2;P2;SDS_P1;SDS_P2;PMS_P1;PMS_P2;Temp;Humidity;BMP_temperature;BMP_pressure;BME280_temperature;BME280_humidity;BME280_pressure;Samples;Min_cycle;Max_cycle;Signal;HPM_P1;HPM_P2
2023/07/26 00:01:34;;;;;;;1.92;1.73;;;13.30;99.90;;;;;;5054321;28;20049;-69
2023/07/26 00:04:00;;;;;;;2.85;2.25;;;13.30;99.90;;;;;;5036625;28;20045;-67
2023/07/26 00:06:26;;;;;;;4.57;2.55;;;13.30;99.90;;;;;;5037222;28;20045;-67
2023/07/26 00:08:52;;;;;;;2.70;2.25;;;13.30;99.90;;;;;;5054174;28;20094;-67
2023/07/26 00:11:18;;;;;;;2.80;2.08;;;13.20;99.90;;;;;;5054217;28;20045;-68
2023/07/26 00:13:44;;;;;;;2.90;2.28;;;13.20;99.90;;;;;;5053970;28;20134;-68
2023/07/26 00:16:10;;;;;;;3.85;2.58;;;13.20;99.90;;;;;;5054264;28;20060;-68
2023/07/26 00:18:39;;;;;;;6.95;3.10;;;13.30;99.90;;;;;;5054321;28;20118;-67
2023/07/26 00:21:07;;;;;;;4.20;2.50;;;13.30;99.90;;;;;;5053683;28;20541;-67
2023/07/26 00:23:33;;;;;;;2.55;2.35;;;13.20;99.90;;;;;;5054125;28;20041;-68
2023/07/26 00:25:59;;;;;;;3.05;2.35;;;13.30;99.90;;;;;;5036093;28;20048;-68
2023/07/26 00:28:24;;;;;;;3.75;2.42;;;13.30;99.90;;;;;;5053690;28;20041;-67
2023/07/26 00:30:50;;;;;;;5.80;3.13;;;13.30;99.90;;;;;;5019795;28;20045;-67
2023/07/26 00:33:16;;;;;;;4.50;2.65;;;13.30;99.90;;;;;;5053037;28;20098;-67
2023/07/26 00:35:43;;;;;;;3.28;2.97;;;13.30;99.90;;;;;;5053845;28;20089;-67
2023/07/26 00:38:09;;;;;;;4.65;2.50;;;13.30;99.90;;;;;;5053520;28;20047;-67
2023/07/26 00:40:39;;;;;;;3.38;2.30;;;13.30;99.90;;;;;;5053564;28;20071;-67
2023/07/26 00:43:08;;;;;;;4.22;2.63;;;13.30;99.90;;;;;;5053172;28;20490;-68
2023/07/26 00:45:36;;;;;;;4.22;3.30;;;13.30;99.90;;;;;;5053870;28;20044;-67
2023/07/26 00:48:02;;;;;;;3.35;1.92;;;13.30;99.90;;;;;;5053533;28;20041;-66
2023/07/26 00:50:28;;;;;;;3.58;2.70;;;13.30;99.90;;;;;;5053462;28;20049;-68
2023/07/26 00:52:54;;;;;;;3.97;2.95;;;13.30;99.90;;;;;;5053455;28;20068;-68
2023/07/26 00:55:20;;;;;;;4.82;2.85;;;13.30;99.90;;;;;;5053625;28;20053;-68
2023/07/26 00:57:47;;;;;;;3.00;2.65;;;13.30;99.90;;;;;;5053741;28;20036;-67
2023/07/26 01:00:13;;;;;;;4.53;2.63;;;13.30;99.90;;;;;;5053321;28;20397;-67
2023/07/26 01:02:39;;;;;;;4.18;3.35;;;13.30;99.90;;;;;;5053563;28;20045;-67
2023/07/26 01:05:06;;;;;;;3.97;2.40;;;13.30;99.90;;;;;;5035226;28;20110;-67
2023/07/26 01:08:01;;;;;;;3.65;2.50;;;13.30;99.90;;;;;;5035327;28;20080;-68
2023/07/26 01:10:53;;;;;;;3.60;3.15;;;13.20;99.90;;;;;;5052978;28;20252;-67
2023/07/26 01:13:44;;;;;;;3.58;2.65;;;13.20;99.90;;;;;;5031710;28;20072;-68
2023/07/26 01:16:10;;;;;;;5.07;3.80;;;13.20;99.90;;;;;;5052909;28;20244;-67
2023/07/26 01:18:36;;;;;;;5.43;4.18;;;13.20;99.90;;;;;;5052883;28;20045;-68
2023/07/26 01:21:02;;;;;;;4.00;3.08;;;13.20;99.90;;;;;;5052609;28;20049;-68
2023/07/26 01:23:28;;;;;;;3.78;2.53;;;13.20;99.90;;;;;;5035145;28;20041;-69
2023/07/26 01:25:53;;;;;;;6.07;3.75;;;13.20;99.90;;;;;;5035010;28;20057;-67
2023/07/26 01:28:19;;;;;;;4.80;3.45;;;13.20;99.90;;;;;;5053035;28;20045;-67
2023/07/26 01:30:46;;;;;;;5.07;3.15;;;13.20;99.90;;;;;;5053253;28;20084;-68
2023/07/26 01:33:13;;;;;;;5.97;4.07;;;13.20;99.90;;;;;;5052766;28;20075;-67
2023/07/26 01:35:40;;;;;;;4.40;3.15;;;13.20;99.90;;;;;;5052634;28;20041;-67
2023/07/26 01:38:07;;;;;;;5.20;3.15;;;13.20;99.90;;;;;;5052492;28;20055;-67
2023/07/26 01:40:34;;;;;;;3.78;3.40;;;13.20;99.90;;;;;;5052573;28;20107;-68
2023/07/26 01:43:00;;;;;;;6.45;4.05;;;13.20;99.90;;;;;;5052308;28;20045;-67
2023/07/26 01:45:26;;;;;;;4.22;3.60;;;13.30;99.90;;;;;;5051840;28;20049;-67
2023/07/26 01:47:53;;;;;;;3.08;2.78;;;13.20;99.90;;;;;;5052843;28;20116;-68
2023/07/26 01:50:19;;;;;;;5.03;3.58;;;13.20;99.90;;;;;;5052370;28;20048;-68
2023/07/26 01:52:45;;;;;;;4.38;3.55;;;13.10;99.90;;;;;;5052234;28;20055;-67
2023/07/26 01:55:10;;;;;;;7.38;4.20;;;13.10;99.90;;;;;;5052351;28;20053;-67
2023/07/26 01:57:36;;;;;;;4.80;4.20;;;13.10;99.90;;;;;;5051952;28;20450;-68
2023/07/26 02:00:02;;;;;;;4.65;3.55;;;13.00;99.90;;;;;;5052716;28;20048;-67
2023/07/26 02:02:28;;;;;;;4.55;4.13;;;13.00;99.90;;;;;;5035431;28;20059;-68
2023/07/26 02:04:54;;;;;;;4.90;4.38;;;12.90;99.90;;;;;;5035008;28;20120;-68
2023/07/26 02:07:20;;;;;;;4.18;3.63;;;12.90;99.90;;;;;;5052297;28;20464;-67
2023/07/26 02:09:46;;;;;;;6.50;3.53;;;12.70;99.90;;;;;;5052665;28;20432;-67
2023/07/26 02:12:11;;;;;;;3.53;3.05;;;12.70;99.90;;;;;;5052602;28;20052;-67
2023/07/26 02:14:37;;;;;;;3.88;3.40;;;12.70;99.90;;;;;;5052696;28;20445;-68
2023/07/26 02:17:03;;;;;;;4.28;3.90;;;12.70;99.90;;;;;;5034376;28;20064;-68
2023/07/26 02:19:28;;;;;;;4.65;3.67;;;12.60;99.90;;;;;;5034718;28;20366;-67
2023/07/26 02:21:54;;;;;;;4.88;4.32;;;12.60;99.90;;;;;;5052686;28;20049;-67
2023/07/26 02:24:21;;;;;;;5.00;3.47;;;12.60;99.90;;;;;;5052662;28;20367;-67
2023/07/26 02:26:47;;;;;;;3.83;3.15;;;12.60;99.90;;;;;;5034946;28;20048;-67
2023/07/26 02:29:12;;;;;;;4.30;2.90;;;12.50;99.90;;;;;;5018079;28;20386;-68
2023/07/26 02:31:38;;;;;;;6.65;4.78;;;12.40;99.90;;;;;;5052235;28;20049;-68
2023/07/26 02:34:03;;;;;;;4.70;4.15;;;12.40;99.90;;;;;;5052484;28;20466;-69
2023/07/26 02:36:29;;;;;;;7.05;4.60;;;12.30;99.90;;;;;;5051977;28;20053;-67
2023/07/26 02:38:55;;;;;;;6.63;3.58;;;12.30;99.90;;;;;;5034196;28;20137;-67
2023/07/26 02:41:20;;;;;;;8.38;4.20;;;12.20;99.90;;;;;;5052051;28;20041;-67
2023/07/26 02:43:46;;;;;;;4.22;3.80;;;12.20;99.90;;;;;;5034355;28;20132;-68
2023/07/26 02:46:12;;;;;;;4.63;3.72;;;12.10;99.90;;;;;;5052012;28;20048;-67
2023/07/26 02:48:37;;;;;;;5.50;4.78;;;12.10;99.90;;;;;;5052293;28;20060;-67
2023/07/26 02:51:03;;;;;;;4.20;3.38;;;12.10;99.90;;;;;;5051651;28;20060;-67
2023/07/26 02:53:29;;;;;;;3.70;3.25;;;12.00;99.90;;;;;;5052189;28;20052;-68
2023/07/26 02:55:54;;;;;;;5.85;3.50;;;12.00;99.90;;;;;;5053645;28;20053;-68
2023/07/26 02:58:20;;;;;;;6.80;4.60;;;12.00;99.90;;;;;;5055528;28;20045;-67
2023/07/26 03:00:50;;;;;;;7.60;3.95;;;12.00;99.90;;;;;;5056128;28;20045;-68
2023/07/26 03:03:16;;;;;;;5.45;4.70;;;12.00;99.90;;;;;;5055642;28;20052;-69
2023/07/26 03:05:42;;;;;;;5.40;3.78;;;12.00;99.90;;;;;;5055998;28;20041;-67
2023/07/26 03:08:07;;;;;;;3.88;3.58;;;11.90;99.90;;;;;;5055469;28;20469;-68
2023/07/26 03:10:34;;;;;;;4.45;3.38;;;11.90;99.90;;;;;;5055842;28;20052;-67
2023/07/26 03:12:59;;;;;;;4.03;3.28;;;11.80;99.90;;;;;;5055625;28;20060;-67
2023/07/26 03:15:25;;;;;;;5.78;4.50;;;11.90;99.90;;;;;;5055372;28;20049;-66
2023/07/26 03:17:51;;;;;;;4.78;4.38;;;11.90;99.90;;;;;;5055644;28;20466;-66
2023/07/26 03:20:16;;;;;;;5.82;4.95;;;11.80;99.90;;;;;;5054732;28;20041;-66
2023/07/26 03:22:42;;;;;;;5.88;4.03;;;11.90;99.90;;;;;;5055455;28;20128;-67
2023/07/26 03:25:08;;;;;;;4.43;3.80;;;11.80;99.90;;;;;;5055252;28;20045;-67
2023/07/26 03:27:34;;;;;;;5.20;3.97;;;11.80;99.90;;;;;;5055155;28;20394;-66
2023/07/26 03:30:00;;;;;;;5.13;3.85;;;11.80;99.90;;;;;;5037725;28;20511;-66
2023/07/26 03:32:26;;;;;;;4.25;3.85;;;11.80;99.90;;;;;;5054811;28;20114;-67
2023/07/26 03:34:51;;;;;;;4.13;3.70;;;11.70;99.90;;;;;;5054881;28;20052;-66
2023/07/26 03:37:17;;;;;;;4.75;4.30;;;11.70;99.90;;;;;;5054719;28;20049;-66
2023/07/26 03:39:43;;;;;;;4.28;3.92;;;11.70;99.90;;;;;;5036982;28;20049;-66
2023/07/26 03:42:08;;;;;;;5.40;3.63;;;11.70;99.90;;;;;;5055042;28;20049;-67
2023/07/26 03:44:34;;;;;;;5.72;4.25;;;11.70;99.90;;;;;;5054950;28;20045;-68
2023/07/26 03:47:00;;;;;;;5.25;4.75;;;11.70;99.90;;;;;;5037554;28;20134;-66
2023/07/26 03:49:25;;;;;;;4.10;3.63;;;11.60;99.90;;;;;;5054593;28;20053;-67
2023/07/26 03:51:51;;;;;;;4.85;4.35;;;11.70;99.90;;;;;;5054624;28;20047;-66
2023/07/26 03:54:17;;;;;;;5.07;4.32;;;11.70;99.90;;;;;;5055205;28;20449;-67
2023/07/26 03:56:42;;;;;;;6.40;4.60;;;11.70;99.90;;;;;;5054409;28;20423;-67
2023/07/26 03:59:08;;;;;;;7.63;5.10;;;11.80;99.90;;;;;;5054773;28;20045;-67
2023/07/26 04:01:33;;;;;;;5.10;4.60;;;11.80;99.90;;;;;;5054657;28;20120;-67
2023/07/26 04:03:59;;;;;;;5.50;4.68;;;11.90;99.90;;;;;;5020316;28;20045;-67
2023/07/26 04:06:25;;;;;;;8.15;5.03;;;12.00;99.90;;;;;;5035872;28;20053;-67
2023/07/26 04:08:50;;;;;;;7.68;4.88;;;12.00;99.90;;;;;;5036224;28;20077;-67
2023/07/26 04:11:16;;;;;;;7.13;4.57;;;12.10;99.90;;;;;;5053967;28;20080;-67
2023/07/26 04:13:42;;;;;;;5.78;4.70;;;12.10;99.90;;;;;;5054421;28;20048;-67
2023/07/26 04:16:16;;;;;;;4.88;3.75;;;12.10;99.90;;;;;;5054032;28;20453;-67
2023/07/26 04:18:42;;;;;;;5.80;3.85;;;12.20;99.90;;;;;;5053516;28;20049;-69
2023/07/26 04:21:14;;;;;;;4.57;3.38;;;12.20;99.90;;;;;;5053979;28;20120;-68
2023/07/26 04:23:40;;;;;;;5.80;5.07;;;12.30;99.90;;;;;;5054075;28;20045;-68
2023/07/26 04:26:06;;;;;;;6.57;4.20;;;12.30;99.90;;;;;;5053628;28;20509;-67
2023/07/26 04:28:32;;;;;;;5.03;4.47;;;12.40;99.90;;;;;;5053978;28;20075;-67
2023/07/26 04:30:58;;;;;;;6.10;4.65;;;12.40;99.90;;;;;;5053518;28;20076;-67
2023/07/26 04:33:23;;;;;;;5.18;4.68;;;12.40;99.90;;;;;;5053435;28;20103;-68
2023/07/26 04:35:51;;;;;;;4.65;3.33;;;12.40;99.90;;;;;;5053803;28;20461;-68
2023/07/26 04:38:20;;;;;;;7.15;4.47;;;12.50;99.90;;;;;;5053319;28;20041;-68
2023/07/26 04:40:47;;;;;;;4.47;3.95;;;12.50;99.90;;;;;;5053228;28;20048;-68
2023/07/26 04:43:16;;;;;;;4.95;4.00;;;12.50;99.90;;;;;;5053618;28;20141;-68
2023/07/26 04:45:45;;;;;;;5.78;5.28;;;12.60;99.90;;;;;;5053210;28;20049;-68
2023/07/26 04:48:11;;;;;;;6.20;4.18;;;12.60;99.90;;;;;;5053235;28;20095;-68
2023/07/26 04:50:36;;;;;;;5.05;4.53;;;12.60;99.90;;;;;;5053152;28;20103;-68
2023/07/26 04:53:02;;;;;;;3.25;2.95;;;12.70;99.90;;;;;;5053778;28;20503;-67
2023/07/26 04:55:28;;;;;;;6.10;4.80;;;12.70;99.90;;;;;;5018983;28;20063;-68
2023/07/26 04:57:53;;;;;;;4.45;4.05;;;12.80;99.90;;;;;;5053297;28;20090;-67
2023/07/26 05:00:19;;;;;;;4.65;4.13;;;12.80;99.90;;;;;;5035269;28;20396;-68
2023/07/26 05:02:45;;;;;;;5.07;4.40;;;12.90;99.90;;;;;;5052977;28;20137;-68
2023/07/26 05:05:10;;;;;;;4.68;4.28;;;13.00;99.90;;;;;;5053127;28;20429;-68
2023/07/26 05:07:36;;;;;;;4.28;3.88;;;13.00;99.90;;;;;;5053238;28;20056;-67
2023/07/26 05:10:02;;;;;;;7.90;3.65;;;13.10;99.90;;;;;;5052687;28;20539;-67
2023/07/26 05:12:28;;;;;;;4.88;3.67;;;13.20;99.90;;;;;;5052748;28;20088;-67
2023/07/26 05:14:53;;;;;;;4.30;3.67;;;13.30;99.90;;;;;;5052686;28;20049;-68
2023/07/26 05:17:19;;;;;;;4.13;3.50;;;13.40;99.90;;;;;;5052542;28;20500;-68
2023/07/26 05:19:45;;;;;;;4.88;3.80;;;13.50;99.90;;;;;;5052342;28;20377;-67
2023/07/26 05:22:11;;;;;;;4.70;3.22;;;13.70;99.90;;;;;;5052662;28;20084;-67
2023/07/26 05:24:36;;;;;;;5.07;3.53;;;13.80;99.90;;;;;;5034782;28;20500;-67
2023/07/26 05:27:03;;;;;;;3.28;2.92;;;13.90;99.90;;;;;;5052401;28;20045;-68
2023/07/26 05:29:30;;;;;;;2.97;2.70;;;14.00;99.90;;;;;;5052499;28;20056;-68
2023/07/26 05:31:55;;;;;;;3.90;2.88;;;14.10;99.90;;;;;;5052360;28;20221;-67
2023/07/26 05:34:21;;;;;;;3.63;3.28;;;14.10;99.90;;;;;;5034810;28;20438;-68
2023/07/26 05:36:47;;;;;;;4.40;2.97;;;14.10;99.90;;;;;;5052543;28;20389;-69
2023/07/26 05:39:13;;;;;;;4.18;2.35;;;14.10;99.90;;;;;;5052254;28;20045;-68
2023/07/26 05:41:38;;;;;;;3.38;2.58;;;14.10;99.90;;;;;;5052258;28;20045;-68
2023/07/26 05:44:04;;;;;;;3.75;2.50;;;14.10;99.90;;;;;;5052114;28;20045;-69
2023/07/26 05:46:30;;;;;;;3.92;2.30;;;14.10;99.90;;;;;;5052064;28;20133;-67
2023/07/26 05:48:55;;;;;;;2.22;1.92;;;14.20;99.90;;;;;;5052380;28;20045;-67
2023/07/26 05:51:21;;;;;;;4.05;2.28;;;14.20;99.90;;;;;;5052349;28;20505;-68
2023/07/26 05:53:47;;;;;;;3.10;2.40;;;14.30;99.90;;;;;;5052016;28;20063;-67
2023/07/26 05:56:14;;;;;;;3.80;2.70;;;14.30;99.90;;;;;;5052744;28;20124;-67
2023/07/26 05:58:39;;;;;;;3.22;2.67;;;14.30;99.90;;;;;;5052287;28;20120;-67
2023/07/26 06:01:05;;;;;;;3.28;2.25;;;14.30;99.90;;;;;;5052035;28;20099;-67
2023/07/26 06:03:33;;;;;;;3.42;2.75;;;14.20;99.90;;;;;;5052298;28;20102;-68
2023/07/26 06:06:00;;;;;;;5.43;2.72;;;14.10;99.90;;;;;;5052233;28;20187;-68
2023/07/26 06:08:25;;;;;;;3.17;2.63;;;14.10;99.90;;;;;;5035246;28;20052;-68
2023/07/26 06:10:51;;;;;;;3.83;2.85;;;14.00;99.90;;;;;;5052271;28;20051;-68
2023/07/26 06:13:17;;;;;;;3.47;2.40;;;14.00;99.90;;;;;;5052239;28;20140;-67
2023/07/26 06:15:43;;;;;;;3.22;2.20;;;14.00;99.90;;;;;;5034659;28;20098;-67
2023/07/26 06:18:09;;;;;;;4.20;2.70;;;14.00;99.90;;;;;;5034241;28;20057;-67
2023/07/26 06:20:35;;;;;;;3.63;2.70;;;14.10;99.90;;;;;;5051932;28;20045;-68
2023/07/26 06:23:01;;;;;;;3.67;2.90;;;14.10;99.90;;;;;;5052459;28;20040;-67
2023/07/26 06:25:26;;;;;;;3.28;2.40;;;14.30;99.90;;;;;;5052029;28;20052;-68
2023/07/26 06:27:52;;;;;;;2.95;2.30;;;14.40;99.90;;;;;;5052373;28;20087;-68
2023/07/26 06:30:18;;;;;;;2.53;2.33;;;14.60;99.90;;;;;;5053181;28;20059;-70
2023/07/26 06:32:43;;;;;;;3.97;2.13;;;14.80;99.90;;;;;;5038229;28;20538;-68
2023/07/26 06:35:10;;;;;;;2.33;2.08;;;14.90;99.90;;;;;;5056165;28;20063;-69
2023/07/26 06:37:36;;;;;;;3.30;2.13;;;15.00;99.90;;;;;;5055827;28;20191;-68
2023/07/26 06:40:02;;;;;;;2.95;2.33;;;15.10;99.90;;;;;;5021767;28;20131;-69
2023/07/26 06:42:28;;;;;;;3.38;2.47;;;15.30;99.90;;;;;;5055856;28;20049;-68
2023/07/26 06:44:54;;;;;;;3.83;2.72;;;15.60;99.90;;;;;;5038793;28;20037;-68
2023/07/26 06:47:20;;;;;;;2.70;2.25;;;16.40;99.90;;;;;;5055802;28;20037;-67
2023/07/26 06:49:46;;;;;;;3.70;2.55;;;17.20;99.90;;;;;;5055885;28;20044;-68
2023/07/26 06:52:11;;;;;;;2.70;2.28;;;17.90;99.90;;;;;;5055623;28;20113;-68
2023/07/26 06:54:37;;;;;;;3.25;2.03;;;18.20;99.90;;;;;;5055681;28;20055;-67
2023/07/26 06:57:04;;;;;;;3.45;1.90;;;18.10;99.90;;;;;;5037851;28;20049;-68
2023/07/26 06:59:30;;;;;;;2.15;1.80;;;17.80;99.90;;;;;;5055489;28;20049;-66
2023/07/26 07:01:55;;;;;;;3.47;2.00;;;17.70;99.90;;;;;;5038094;28;20106;-68
2023/07/26 07:04:21;;;;;;;3.83;2.03;;;17.60;99.90;;;;;;5055343;28;20366;-67
2023/07/26 07:06:47;;;;;;;2.15;1.92;;;17.60;99.90;;;;;;5055932;28;20079;-67
2023/07/26 07:09:12;;;;;;;2.75;1.80;;;17.90;99.90;;;;;;5055285;28;20444;-67
2023/07/26 07:11:38;;;;;;;3.42;1.95;;;18.00;99.90;;;;;;5055364;28;20098;-68
2023/07/26 07:14:04;;;;;;;2.63;2.00;;;17.90;99.90;;;;;;5055286;28;20056;-69
2023/07/26 07:16:30;;;;;;;1.83;1.45;;;17.70;99.90;;;;;;5021123;28;20052;-70
2023/07/26 07:18:56;;;;;;;2.85;2.05;;;17.20;99.90;;;;;;5055685;28;20053;-70
2023/07/26 07:21:21;;;;;;;3.63;2.45;;;16.90;99.90;;;;;;5037836;28;20045;-67
2023/07/26 07:23:47;;;;;;;2.97;1.92;;;16.50;99.90;;;;;;5055058;28;20052;-68
2023/07/26 07:26:13;;;;;;;3.72;2.67;;;16.20;99.90;;;;;;5055622;28;20128;-67
2023/07/26 07:28:39;;;;;;;4.90;2.58;;;16.00;99.90;;;;;;5054733;28;20492;-68
2023/07/26 07:31:06;;;;;;;5.40;2.50;;;15.80;99.90;;;;;;5055151;28;20059;-67
2023/07/26 07:33:32;;;;;;;3.55;2.05;;;15.60;99.90;;;;;;5054919;28;20049;-68
2023/07/26 07:35:57;;;;;;;3.63;2.72;;;15.40;99.90;;;;;;5021214;28;20486;-68
2023/07/26 07:38:23;;;;;;;4.75;2.40;;;15.20;99.90;;;;;;5054704;28;20044;-68
2023/07/26 07:40:49;;;;;;;3.13;1.80;;;15.20;99.90;;;;;;5054844;28;20473;-68
2023/07/26 07:43:15;;;;;;;2.90;2.22;;;15.20;99.90;;;;;;5053590;28;20057;-68
2023/07/26 07:45:42;;;;;;;2.60;2.03;;;15.20;99.90;;;;;;5054689;28;20037;-68
2023/07/26 07:48:08;;;;;;;6.20;2.38;;;15.20;99.90;;;;;;5054612;28;20049;-68
2023/07/26 07:50:34;;;;;;;3.30;2.13;;;15.30;99.90;;;;;;5054333;28;20070;-64
2023/07/26 07:52:59;;;;;;;2.92;2.10;;;15.30;99.90;;;;;;5054448;28;20454;-65
2023/07/26 07:55:25;;;;;;;3.42;2.60;;;15.30;99.90;;;;;;5054337;28;20051;-66
2023/07/26 07:57:51;;;;;;;3.45;2.13;;;15.30;99.90;;;;;;5036762;28;20041;-64
2023/07/26 08:00:17;;;;;;;3.78;2.63;;;15.60;99.90;;;;;;5054357;28;20389;-65
2023/07/26 08:02:43;;;;;;;2.58;2.38;;;16.90;99.90;;;;;;5054784;28;20045;-66
2023/07/26 08:05:10;;;;;;;3.58;2.70;;;18.00;99.90;;;;;;5054734;28;20460;-68
2023/07/26 08:07:36;;;;;;;2.53;2.33;;;19.30;99.90;;;;;;5054597;28;20144;-67
2023/07/26 08:10:02;;;;;;;3.20;2.67;;;20.50;99.90;;;;;;5053888;28;20482;-65
2023/07/26 08:12:28;;;;;;;3.85;3.55;;;21.60;99.90;;;;;;5019543;28;20049;-66
2023/07/26 08:14:53;;;;;;;2.17;2.00;;;22.10;99.90;;;;;;5053993;28;20125;-66
2023/07/26 08:17:19;;;;;;;1.60;1.50;;;22.60;99.90;;;;;;5053463;28;20044;-68
2023/07/26 08:19:46;;;;;;;3.90;1.70;;;23.50;99.90;;;;;;5053892;28;20515;-65
2023/07/26 08:22:12;;;;;;;2.30;1.77;;;23.60;99.90;;;;;;5036044;28;20469;-68
2023/07/26 08:24:38;;;;;;;1.50;1.33;;;23.40;99.90;;;;;;5053519;28;20041;-66
2023/07/26 08:27:06;;;;;;;1.20;1.10;;;22.30;99.90;;;;;;5053802;28;20053;-69
2023/07/26 08:29:32;;;;;;;1.35;1.13;;;21.90;99.90;;;;;;5053933;28;20120;-66
2023/07/26 08:31:58;;;;;;;1.48;1.20;;;21.30;99.90;;;;;;5053804;28;20535;-66
2023/07/26 08:34:23;;;;;;;1.55;1.20;;;20.70;99.90;;;;;;5054107;28;20543;-66
2023/07/26 08:36:49;;;;;;;1.13;1.00;;;20.70;99.90;;;;;;5053714;28;20490;-67
2023/07/26 08:39:15;;;;;;;1.40;1.30;;;20.90;99.90;;;;;;5053398;28;20049;-67
2023/07/26 08:41:41;;;;;;;2.22;1.90;;;20.40;99.90;;;;;;5053389;28;20049;-68
2023/07/26 08:44:08;;;;;;;1.30;1.20;;;20.10;99.90;;;;;;5036290;28;20048;-69
2023/07/26 08:46:38;;;;;;;1.52;1.27;;;19.90;99.90;;;;;;5053736;28;20045;-69
2023/07/26 08:49:04;;;;;;;2.72;1.45;;;19.60;99.90;;;;;;5053285;28;20041;-69
2023/07/26 08:51:30;;;;;;;2.13;1.25;;;20.20;99.90;;;;;;5035970;28;20049;-68
2023/07/26 08:53:58;;;;;;;1.80;1.20;;;20.90;99.90;;;;;;5052759;28;20055;-67
2023/07/26 08:56:25;;;;;;;2.25;1.30;;;21.00;99.90;;;;;;5053160;28;20477;-68
2023/07/26 08:58:51;;;;;;;1.30;1.20;;;20.80;99.90;;;;;;5052761;28;20454;-69
2023/07/26 09:01:17;;;;;;;2.03;1.38;;;20.50;99.90;;;;;;5053026;28;20119;-68
2023/07/26 09:03:43;;;;;;;1.60;1.50;;;20.10;99.90;;;;;;5053388;28;20056;-68
2023/07/26 09:06:09;;;;;;;1.88;1.60;;;20.10;99.90;;;;;;5052879;28;20478;-68
2023/07/26 09:08:35;;;;;;;2.17;1.40;;;20.20;99.90;;;;;;5052931;28;20047;-68
2023/07/26 09:11:17;;;;;;;1.95;1.80;;;20.20;99.90;;;;;;5053397;28;20111;-68
2023/07/26 09:13:43;;;;;;;2.40;1.42;;;20.50;99.90;;;;;;5035128;28;20128;-69
2023/07/26 09:16:09;;;;;;;1.60;1.17;;;21.40;99.90;;;;;;5018677;28;20155;-68
2023/07/26 09:18:35;;;;;;;1.65;1.15;;;21.90;99.90;;;;;;5035039;28;20045;-68
2023/07/26 09:21:04;;;;;;;2.42;1.50;;;22.30;99.90;;;;;;5052645;28;20045;-68
2023/07/26 09:23:30;;;;;;;3.03;1.58;;;22.40;99.90;;;;;;5034918;28;20402;-68
2023/07/26 09:25:55;;;;;;;3.17;1.50;;;22.80;99.90;;;;;;5052438;28;20132;-68
2023/07/26 09:28:23;;;;;;;1.85;1.70;;;23.10;99.90;;;;;;5052490;28;20044;-68
2023/07/26 09:30:49;;;;;;;1.77;1.50;;;23.30;99.90;;;;;;5052574;28;20115;-68
2023/07/26 09:33:15;;;;;;;1.75;1.63;;;23.40;99.90;;;;;;5052643;28;20045;-68
2023/07/26 09:35:46;;;;;;;1.45;1.30;;;23.30;99.90;;;;;;5052445;28;20052;-68
2023/07/26 09:38:22;;;;;;;1.80;1.48;;;23.20;98.70;;;;;;5052437;28;20041;-68
2023/07/26 09:40:48;;;;;;;2.92;1.70;;;23.30;99.90;;;;;;5052501;28;20453;-68
2023/07/26 09:43:30;;;;;;;1.88;1.50;;;23.50;99.90;;;;;;5052729;28;20095;-68
2023/07/26 09:46:01;;;;;;;2.30;1.65;;;23.80;98.50;;;;;;5052521;28;20056;-69
2023/07/26 09:48:26;;;;;;;3.28;1.65;;;23.70;99.90;;;;;;5052302;28;20120;-70
2023/07/26 09:50:55;;;;;;;2.00;1.33;;;23.80;99.90;;;;;;5052724;28;20258;-69
2023/07/26 09:53:27;;;;;;;2.05;1.52;;;23.70;99.90;;;;;;5052811;28;20053;-69
2023/07/26 09:55:53;;;;;;;2.25;1.75;;;23.70;99.90;;;;;;5035158;28;20496;-69
2023/07/26 09:58:22;;;;;;;2.92;1.50;;;23.10;99.80;;;;;;5034614;28;20151;-69
2023/07/26 10:00:48;;;;;;;2.83;1.30;;;22.80;99.90;;;;;;5052303;28;20056;-68
2023/07/26 10:03:18;;;;;;;2.67;1.35;;;23.20;99.90;;;;;;5052613;28;20053;-68
2023/07/26 10:05:50;;;;;;;1.65;1.35;;;23.40;99.00;;;;;;5051612;28;20045;-68
2023/07/26 10:08:16;;;;;;;2.28;1.83;;;22.90;97.60;;;;;;5034615;28;20060;-68
2023/07/26 10:10:43;;;;;;;2.60;1.48;;;22.20;99.90;;;;;;5051926;28;20072;-68
2023/07/26 10:13:10;;;;;;;1.60;1.25;;;21.50;99.90;;;;;;5052252;28;20120;-69
2023/07/26 10:15:41;;;;;;;2.85;1.80;;;20.90;99.90;;;;;;5052232;28;20060;-69
2023/07/26 10:18:07;;;;;;;1.65;1.55;;;20.50;99.90;;;;;;5052059;28;20093;-68
2023/07/26 10:20:34;;;;;;;3.00;1.75;;;20.10;99.90;;;;;;5052451;28;20080;-68
2023/07/26 10:23:03;;;;;;;2.50;1.90;;;19.90;99.90;;;;;;5052054;28;20049;-68
2023/07/26 10:25:31;;;;;;;2.65;2.42;;;19.80;99.90;;;;;;5052210;28;20494;-69
2023/07/26 10:27:56;;;;;;;1.92;1.80;;;20.10;99.90;;;;;;5018756;28;20061;-69
2023/07/26 10:30:22;;;;;;;2.78;2.25;;;20.80;99.90;;;;;;5052136;28;20049;-69
2023/07/26 10:32:48;;;;;;;3.03;1.90;;;21.40;99.90;;;;;;5052140;28;20395;-68
2023/07/26 10:35:29;;;;;;;2.33;1.88;;;21.90;99.90;;;;;;5051994;28;20053;-68
2023/07/26 10:37:57;;;;;;;2.75;2.10;;;22.10;99.90;;;;;;5052074;28;20049;-69
2023/07/26 10:40:34;;;;;;;3.28;2.45;;;22.20;99.90;;;;;;5051853;28;20045;-68
2023/07/26 10:43:18;;;;;;;2.05;1.83;;;22.50;99.90;;;;;;5052074;28;20045;-68
2023/07/26 10:45:44;;;;;;;3.45;2.22;;;22.60;99.90;;;;;;5052448;28;20539;-68
2023/07/26 10:48:25;;;;;;;4.60;2.30;;;22.90;99.90;;;;;;5034706;28;20048;-69
2023/07/26 10:50:54;;;;;;;2.33;1.40;;;23.30;99.90;;;;;;5052127;28;20122;-70
2023/07/26 10:53:30;;;;;;;2.30;1.50;;;23.70;99.90;;;;;;5051821;28;20051;-68
2023/07/26 10:56:18;;;;;;;1.60;1.50;;;24.00;99.90;;;;;;5051863;28;20102;-70
2023/07/26 10:59:02;;;;;;;2.72;1.33;;;23.60;98.50;;;;;;5051781;28;20566;-68
2023/07/26 11:01:32;;;;;;;2.15;1.20;;;23.10;99.90;;;;;;5034550;28;20045;-69
2023/07/26 11:03:59;;;;;;;1.50;1.33;;;22.80;99.90;;;;;;5051739;28;20052;-68
2023/07/26 11:07:01;;;;;;;1.73;1.20;;;22.60;99.90;;;;;;5052017;28;20037;-67
2023/07/26 11:09:29;;;;;;;1.90;1.80;;;22.50;98.20;;;;;;4970646;28;20054;-67
2023/07/26 11:12:13;;;;;;;2.25;1.40;;;22.40;99.90;;;;;;5036489;28;20057;-68
2023/07/26 11:14:38;;;;;;;3.13;1.90;;;22.40;99.90;;;;;;5051809;28;20140;-69
2023/07/26 11:17:14;;;;;;;1.88;1.63;;;22.20;98.60;;;;;;5053665;28;20515;-69
2023/07/26 11:19:48;;;;;;;2.58;1.52;;;21.70;97.70;;;;;;5055001;28;20057;-67
2023/07/26 11:22:14;;;;;;;2.92;1.60;;;21.60;98.40;;;;;;5055651;28;20033;-67
2023/07/26 11:24:40;;;;;;;3.17;1.40;;;21.50;98.80;;;;;;5055356;28;20048;-67
2023/07/26 11:27:07;;;;;;;2.33;1.60;;;21.50;99.00;;;;;;5054887;28;20045;-67
2023/07/26 11:29:33;;;;;;;2.35;1.60;;;21.50;99.00;;;;;;5054970;28;20053;-68
2023/07/26 11:31:59;;;;;;;1.45;1.05;;;21.50;98.80;;;;;;5055332;28;20068;-68
2023/07/26 11:34:25;;;;;;;1.55;0.95;;;21.10;97.30;;;;;;5054858;28;20471;-68
2023/07/26 11:36:50;;;;;;;0.85;0.63;;;20.50;97.90;;;;;;5054669;28;20052;-67
2023/07/26 11:39:25;;;;;;;0.80;0.63;;;19.80;97.50;;;;;;5036953;28;20045;-68
2023/07/26 11:41:52;;;;;;;0.70;0.68;;;19.10;97.10;;;;;;5036923;28;20045;-68
2023/07/26 11:44:22;;;;;;;0.63;0.52;;;18.80;98.60;;;;;;5036685;28;20037;-67
2023/07/26 11:46:48;;;;;;;0.88;0.88;;;18.50;98.90;;;;;;5054433;28;20134;-68
2023/07/26 11:49:22;;;;;;;0.85;0.85;;;18.30;99.70;;;;;;5054590;28;20121;-68
2023/07/26 11:51:49;;;;;;;1.55;0.90;;;18.00;99.90;;;;;;5054692;28;20471;-67
2023/07/26 11:54:16;;;;;;;1.70;1.10;;;17.80;99.90;;;;;;5054452;28;20047;-67
2023/07/26 11:56:42;;;;;;;3.70;1.40;;;17.40;99.90;;;;;;5054439;28;20088;-68
2023/07/26 11:59:09;;;;;;;2.45;1.58;;;17.20;99.90;;;;;;5054222;28;20048;-67
2023/07/26 12:01:36;;;;;;;2.25;1.10;;;17.20;99.90;;;;;;5054540;28;20490;-68
2023/07/26 12:04:22;;;;;;;1.83;1.50;;;17.00;99.90;;;;;;5054246;28;20052;-67
2023/07/26 12:06:48;;;;;;;8.73;2.42;;;16.80;99.90;;;;;;5053549;28;20564;-68
2023/07/26 12:09:14;;;;;;;3.58;2.22;;;16.70;99.90;;;;;;5054168;28;20049;-68
2023/07/26 12:11:47;;;;;;;3.17;1.65;;;16.50;99.90;;;;;;5036431;28;20052;-67
2023/07/26 12:14:16;;;;;;;2.53;1.77;;;16.40;99.90;;;;;;5054346;28;20049;-67
2023/07/26 12:16:49;;;;;;;1.58;1.48;;;16.40;99.90;;;;;;5054041;28;20142;-68
2023/07/26 12:19:18;;;;;;;2.53;2.05;;;16.40;99.90;;;;;;5053882;28;20049;-67
2023/07/26 12:21:47;;;;;;;3.08;1.63;;;16.50;99.90;;;;;;5054493;28;20067;-67
2023/07/26 12:24:13;;;;;;;1.70;1.60;;;16.60;99.90;;;;;;5036496;28;20432;-66
2023/07/26 12:26:44;;;;;;;3.30;1.70;;;16.80;99.90;;;;;;5053875;28;20044;-67
2023/07/26 12:29:11;;;;;;;3.22;2.08;;;17.00;99.90;;;;;;5053009;28;20037;-67
2023/07/26 12:31:39;;;;;;;3.65;1.75;;;17.60;99.90;;;;;;5036103;28;20421;-67
2023/07/26 12:34:07;;;;;;;2.22;1.63;;;18.00;99.90;;;;;;5053794;28;20135;-68
2023/07/26 12:36:43;;;;;;;2.53;1.85;;;18.30;99.90;;;;;;5035767;28;20052;-67
2023/07/26 12:39:37;;;;;;;2.85;1.98;;;18.40;99.90;;;;;;5053504;28;20041;-68
2023/07/26 12:42:03;;;;;;;2.67;2.13;;;18.30;99.90;;;;;;5015983;28;20413;-69
2023/07/26 12:44:28;;;;;;;3.60;1.77;;;18.40;99.90;;;;;;5035779;28;20436;-68
2023/07/26 12:46:54;;;;;;;3.13;2.20;;;18.40;99.90;;;;;;5053744;28;20045;-68
2023/07/26 12:49:20;;;;;;;4.13;2.35;;;18.60;99.90;;;;;;5053360;28;20045;-67